Albany, New York
Traffic Map
Current Weather Conditions
Albany, New York
Scattered Clouds
Scattered Clouds
49°
Feels Like: 45°
Wind Chill: 45° Ceiling: Unl
Heat Index: 49° Visibility: 10mi
Dew Point: 30° Wind: 10mph
Humidity: 48% Direction: 360° (N)
Pressure: 30.3in Gusts: 0mph
Raw Report DataKALB 191351Z 36009KT 10SM FEW035 SCT250 09/M01 A3030 RMK AO2 SLP262 T00941011
Traffic Incident Summary
Active as of:
Severity:
Category:
InformationThere was an issue retrieving the traffic information for this location. Please try a different location or try again shortly.
Advertisements
Track Severe Weather on mobile